createdAt,value
2022-12-04T00:00:22.071Z,13.97
2022-12-04T00:02:50.317Z,14.67
2022-12-04T00:05:18.605Z,14.20
2022-12-04T00:07:46.833Z,13.43
2022-12-04T00:10:15.050Z,14.63
2022-12-04T00:12:43.210Z,15.00
2022-12-04T00:15:28.517Z,14.57
2022-12-04T00:17:56.757Z,13.23
2022-12-04T00:20:24.946Z,14.53
2022-12-04T00:22:53.152Z,14.07
2022-12-04T00:25:21.330Z,14.10
2022-12-04T00:27:49.505Z,13.87
2022-12-04T00:30:19.135Z,13.80
2022-12-04T00:32:47.329Z,14.40
2022-12-04T00:35:15.500Z,14.53
2022-12-04T00:37:43.676Z,13.77
2022-12-04T00:40:12.214Z,13.90
2022-12-04T00:42:40.357Z,12.87
2022-12-04T00:45:08.928Z,13.57
2022-12-04T00:47:38.430Z,14.33
2022-12-04T00:50:07.228Z,13.90
2022-12-04T00:52:35.403Z,13.50
2022-12-04T00:55:03.578Z,13.33
2022-12-04T00:57:31.738Z,13.87
2022-12-04T00:59:59.950Z,13.17
2022-12-04T01:02:28.186Z,13.63
2022-12-04T01:04:57.760Z,14.33
2022-12-04T01:07:26.102Z,13.77
2022-12-04T01:09:54.621Z,13.27
2022-12-04T01:12:22.955Z,13.03
2022-12-04T01:14:51.157Z,12.83
2022-12-04T01:17:19.324Z,14.10
2022-12-04T01:19:47.680Z,12.20
2022-12-04T01:22:17.198Z,13.60
2022-12-04T01:24:45.357Z,14.47
2022-12-04T01:27:13.490Z,15.13
2022-12-04T01:29:41.685Z,12.40
2022-12-04T01:32:09.929Z,13.77
2022-12-04T01:34:38.140Z,13.87
2022-12-04T01:37:06.314Z,12.30
2022-12-04T01:39:37.148Z,13.43
2022-12-04T01:42:05.400Z,12.70
2022-12-04T01:44:34.185Z,12.93
2022-12-04T01:47:02.927Z,12.10
2022-12-04T01:49:32.266Z,14.33
2022-12-04T01:52:01.936Z,13.53
2022-12-04T01:54:31.953Z,14.30
2022-12-04T01:57:02.973Z,15.40
2022-12-04T01:59:33.179Z,15.30
2022-12-04T02:02:02.612Z,14.27
2022-12-04T02:04:31.907Z,13.47
2022-12-04T02:07:00.175Z,14.53
2022-12-04T02:09:28.998Z,14.07
2022-12-04T02:11:59.632Z,14.17
2022-12-04T02:14:33.236Z,13.80
2022-12-04T02:17:06.270Z,14.50
2022-12-04T02:19:52.365Z,14.13
2022-12-04T02:22:26.467Z,14.60
2022-12-04T02:24:55.426Z,14.87
2022-12-04T02:27:30.256Z,14.43
2022-12-04T02:30:03.685Z,13.97
2022-12-04T02:32:35.156Z,15.60
2022-12-04T02:35:05.670Z,13.90
2022-12-04T02:37:36.344Z,14.67
2022-12-04T02:40:06.355Z,13.30
2022-12-04T02:42:38.635Z,14.57
2022-12-04T02:45:10.100Z,14.27
2022-12-04T02:47:39.782Z,13.53
2022-12-04T02:50:10.085Z,11.47
2022-12-04T02:52:40.508Z,12.33
2022-12-04T02:55:11.139Z,11.13
2022-12-04T02:57:42.269Z,11.80
2022-12-04T03:00:12.475Z,11.00
2022-12-04T03:02:43.107Z,11.87
2022-12-04T03:05:13.308Z,11.93
2022-12-04T03:07:44.340Z,11.50
2022-12-04T03:10:15.444Z,11.13
2022-12-04T03:12:44.886Z,11.00
2022-12-04T03:15:17.514Z,11.27
2022-12-04T03:17:49.386Z,11.03
2022-12-04T03:20:19.658Z,10.67
2022-12-04T03:22:51.296Z,11.23
2022-12-04T03:25:19.599Z,11.40
2022-12-04T03:27:50.813Z,10.70
2022-12-04T03:30:21.796Z,10.40
2022-12-04T03:32:52.139Z,10.10
2022-12-04T03:35:23.305Z,11.10
2022-12-04T03:37:54.552Z,10.67
2022-12-04T03:40:24.849Z,10.20
2022-12-04T03:42:58.185Z,11.37
2022-12-04T03:45:29.859Z,10.43
2022-12-04T03:47:59.924Z,10.03
2022-12-04T03:50:32.447Z,10.30
2022-12-04T03:53:01.891Z,9.57
2022-12-04T03:55:32.168Z,10.23
2022-12-04T03:58:01.654Z,10.00
2022-12-04T04:00:32.169Z,10.03
2022-12-04T04:03:01.600Z,9.83
2022-12-04T04:05:30.971Z,10.97
2022-12-04T04:08:21.560Z,10.47
2022-12-04T04:10:50.578Z,9.03
2022-12-04T04:13:43.877Z,9.40
2022-12-04T04:16:32.954Z,10.03
2022-12-04T04:19:20.009Z,9.67
2022-12-04T04:22:09.048Z,9.60
2022-12-04T04:24:40.845Z,9.13
2022-12-04T04:27:09.022Z,10.80
2022-12-04T04:29:37.565Z,8.97
2022-12-04T04:32:10.282Z,9.17
2022-12-04T04:34:42.258Z,9.17
2022-12-04T04:37:13.419Z,8.23
2022-12-04T04:39:44.923Z,9.07
2022-12-04T04:42:16.513Z,8.87
2022-12-04T04:44:47.760Z,8.60
2022-12-04T04:47:18.696Z,9.50
2022-12-04T04:49:48.424Z,8.13
2022-12-04T04:52:17.283Z,7.97
2022-12-04T04:54:46.320Z,8.90
2022-12-04T04:57:14.469Z,8.53
2022-12-04T04:59:42.636Z,9.30
2022-12-04T05:02:11.296Z,8.47
2022-12-04T05:04:40.908Z,8.60
2022-12-04T05:07:09.099Z,10.00
2022-12-04T05:09:41.207Z,9.53
2022-12-04T05:12:10.272Z,9.73
2022-12-04T05:14:38.454Z,9.80
2022-12-04T05:17:12.401Z,9.83
2022-12-04T05:19:55.123Z,10.10
2022-12-04T05:22:24.552Z,10.90
2022-12-04T05:24:52.717Z,10.63
2022-12-04T05:27:20.970Z,10.63
2022-12-04T05:29:49.121Z,9.80
2022-12-04T05:32:17.324Z,10.37
2022-12-04T05:34:48.764Z,10.53
2022-12-04T05:37:16.942Z,9.97
2022-12-04T05:39:45.261Z,9.43
2022-12-04T05:42:13.462Z,10.20
2022-12-04T05:44:41.724Z,10.30
2022-12-04T05:47:10.028Z,9.07
2022-12-04T05:49:38.312Z,9.17
2022-12-04T05:52:08.119Z,7.87
2022-12-04T05:54:36.263Z,7.70
2022-12-04T05:57:04.458Z,7.93
2022-12-04T05:59:32.713Z,7.07
2022-12-04T06:02:00.897Z,6.37
2022-12-04T06:04:29.107Z,7.53
2022-12-04T06:06:57.283Z,7.27
2022-12-04T06:09:26.795Z,6.63
2022-12-04T06:11:58.636Z,6.83
2022-12-04T06:14:26.960Z,7.40
2022-12-04T06:16:55.234Z,6.57
2022-12-04T06:19:23.896Z,6.23
2022-12-04T06:21:52.923Z,6.40
2022-12-04T06:24:22.160Z,6.10
2022-12-04T06:27:25.669Z,6.30
2022-12-04T06:29:39.966Z,7.13
2022-12-04T06:32:08.229Z,6.80
2022-12-04T06:34:36.981Z,7.23
2022-12-04T06:37:05.169Z,6.60
2022-12-04T06:39:33.321Z,6.87
2022-12-04T06:42:02.825Z,6.93
2022-12-04T06:44:31.020Z,6.27
2022-12-04T06:47:01.007Z,6.90
2022-12-04T06:49:29.589Z,7.10
2022-12-04T06:51:57.915Z,7.80
2022-12-04T06:54:26.172Z,6.43
2022-12-04T06:56:54.388Z,6.93
2022-12-04T06:59:23.920Z,7.50
2022-12-04T07:01:52.158Z,8.57
2022-12-04T07:04:20.385Z,8.13
2022-12-04T07:06:48.545Z,7.60
2022-12-04T07:09:18.390Z,8.23
2022-12-04T07:11:47.290Z,8.33
2022-12-04T07:14:16.025Z,7.83
2022-12-04T07:16:45.651Z,7.20
2022-12-04T07:19:15.180Z,7.13
2022-12-04T07:21:43.842Z,7.07
2022-12-04T07:24:15.474Z,8.27
2022-12-04T07:26:43.701Z,8.23
2022-12-04T07:29:11.890Z,7.97
2022-12-04T07:31:40.271Z,9.20
2022-12-04T07:34:09.856Z,8.97
2022-12-04T07:36:38.030Z,8.30
2022-12-04T07:39:06.284Z,8.13
2022-12-04T07:41:34.557Z,8.70
2022-12-04T07:44:02.797Z,8.57
2022-12-04T07:46:31.090Z,8.20
2022-12-04T07:48:59.982Z,9.00
2022-12-04T07:51:30.554Z,7.67
2022-12-04T07:54:03.276Z,9.83
2022-12-04T07:56:32.371Z,8.60
2022-12-04T07:59:01.063Z,8.30
2022-12-04T08:01:29.353Z,9.00
2022-12-04T08:03:58.744Z,9.53
2022-12-04T08:06:27.978Z,9.47
2022-12-04T08:08:58.259Z,10.03
2022-12-04T08:11:27.086Z,9.63
2022-12-04T08:13:56.096Z,9.07
2022-12-04T08:16:24.372Z,10.47
2022-12-04T08:18:52.594Z,10.00
2022-12-04T08:21:21.530Z,9.03
2022-12-04T08:23:50.537Z,8.70
2022-12-04T08:26:20.170Z,9.47
2022-12-04T08:28:48.383Z,9.13
2022-12-04T08:31:17.813Z,9.53
2022-12-04T08:33:46.741Z,9.87
2022-12-04T08:36:15.699Z,9.63
2022-12-04T08:38:44.262Z,9.87
2022-12-04T08:41:13.296Z,10.30
2022-12-04T08:43:42.808Z,10.37
2022-12-04T08:46:13.508Z,10.53
2022-12-04T08:48:42.054Z,10.40
2022-12-04T08:51:13.962Z,10.50
2022-12-04T08:53:42.149Z,10.50
2022-12-04T08:56:10.374Z,10.20
2022-12-04T08:58:38.633Z,10.27
2022-12-04T09:01:09.865Z,11.17
2022-12-04T09:03:38.176Z,10.10
2022-12-04T09:06:07.241Z,10.13
2022-12-04T09:08:35.578Z,9.67
2022-12-04T09:11:05.352Z,9.97
2022-12-04T09:13:33.605Z,10.30
2022-12-04T09:16:01.854Z,9.60
2022-12-04T09:18:31.483Z,9.47
2022-12-04T09:21:00.668Z,9.40
2022-12-04T09:23:29.270Z,11.20
2022-12-04T09:25:57.461Z,10.20
2022-12-04T09:28:25.644Z,10.20
2022-12-04T09:31:00.701Z,10.70
2022-12-04T09:33:30.469Z,10.67
2022-12-04T09:36:01.727Z,11.30
2022-12-04T09:38:29.893Z,11.53
2022-12-04T09:41:01.213Z,10.70
2022-12-04T09:43:32.787Z,10.13
2022-12-04T09:46:04.186Z,11.33
2022-12-04T09:48:34.439Z,10.40
2022-12-04T09:51:04.829Z,11.20
2022-12-04T09:53:39.322Z,10.27
2022-12-04T09:56:08.748Z,10.37
2022-12-04T09:58:40.549Z,10.73
2022-12-04T10:01:17.813Z,10.83
2022-12-04T10:03:46.072Z,10.73
2022-12-04T10:06:18.096Z,9.90
2022-12-04T10:08:47.306Z,11.03
2022-12-04T10:11:18.828Z,9.63
2022-12-04T10:13:59.213Z,10.43
2022-12-04T10:16:30.111Z,9.77
2022-12-04T10:19:02.730Z,9.37
2022-12-04T10:21:43.246Z,10.77
2022-12-04T10:24:26.524Z,10.73
2022-12-04T10:26:56.698Z,11.10
2022-12-04T10:29:27.598Z,10.93
2022-12-04T10:31:56.805Z,11.50
2022-12-04T10:34:27.151Z,11.03
2022-12-04T10:36:59.225Z,11.33
2022-12-04T10:39:28.408Z,11.10
2022-12-04T10:41:59.734Z,11.07
2022-12-04T10:44:27.910Z,10.33
2022-12-04T10:46:58.325Z,10.43
2022-12-04T10:49:28.743Z,10.63
2022-12-04T10:51:58.814Z,10.57
2022-12-04T10:54:28.851Z,11.07
2022-12-04T10:56:58.362Z,11.27
2022-12-04T10:59:26.930Z,11.67
2022-12-04T11:02:06.378Z,11.67
2022-12-04T11:04:36.014Z,12.07
2022-12-04T11:07:08.798Z,11.67
2022-12-04T11:09:37.886Z,11.73
2022-12-04T11:12:08.191Z,11.07
2022-12-04T11:14:36.372Z,12.80
2022-12-04T11:17:05.753Z,11.30
2022-12-04T11:19:36.120Z,10.57
2022-12-04T11:22:12.559Z,9.97
2022-12-04T11:24:42.624Z,11.93
2022-12-04T11:27:18.433Z,11.57
2022-12-04T11:29:47.392Z,10.53
2022-12-04T11:32:20.545Z,11.17
2022-12-04T11:34:51.720Z,10.93
2022-12-04T11:37:23.155Z,11.90
2022-12-04T11:39:52.059Z,11.90
2022-12-04T11:42:24.256Z,10.90
2022-12-04T11:44:54.294Z,12.13
2022-12-04T11:47:23.442Z,12.03
2022-12-04T11:50:03.373Z,11.53
2022-12-04T11:52:39.116Z,11.63
2022-12-04T11:55:12.346Z,11.53
2022-12-04T11:57:43.990Z,11.97
2022-12-04T12:00:14.724Z,12.60
2022-12-04T12:02:48.793Z,12.20
2022-12-04T12:05:21.630Z,12.77
2022-12-04T12:08:00.611Z,12.43
2022-12-04T12:10:33.054Z,12.97
2022-12-04T12:13:06.122Z,12.67
2022-12-04T12:15:38.661Z,12.87
2022-12-04T12:18:16.561Z,11.87
2022-12-04T12:20:51.073Z,12.23
2022-12-04T12:23:25.155Z,12.60
2022-12-04T12:25:58.002Z,14.33
2022-12-04T12:28:33.413Z,12.80
2022-12-04T12:31:08.445Z,12.77
2022-12-04T12:33:38.406Z,13.27
2022-12-04T12:36:08.610Z,11.70
2022-12-04T12:38:41.114Z,11.67
2022-12-04T12:41:12.717Z,12.23
2022-12-04T12:43:41.412Z,12.50
2022-12-04T12:46:12.194Z,12.63
2022-12-04T12:48:45.341Z,13.03
2022-12-04T12:51:35.547Z,13.40
2022-12-04T12:54:10.888Z,12.83
2022-12-04T12:56:46.109Z,12.50
2022-12-04T12:59:18.210Z,12.50
2022-12-04T13:01:48.729Z,11.80
2022-12-04T13:04:22.269Z,11.63
2022-12-04T13:06:52.937Z,11.50
2022-12-04T13:09:26.066Z,10.70
2022-12-04T13:11:55.727Z,11.77
2022-12-04T13:14:23.898Z,11.27
2022-12-04T13:16:53.696Z,10.40
2022-12-04T13:19:24.665Z,11.10
2022-12-04T13:21:56.264Z,10.20
2022-12-04T13:24:45.460Z,10.33
2022-12-04T13:27:18.998Z,9.73
2022-12-04T13:29:54.063Z,9.90
2022-12-04T13:32:32.118Z,10.00
2022-12-04T13:35:02.958Z,9.20
2022-12-04T13:37:39.718Z,9.83
2022-12-04T13:40:28.730Z,9.23
2022-12-04T13:43:14.326Z,9.70
2022-12-04T13:45:42.750Z,9.90
2022-12-04T13:48:11.638Z,9.07
2022-12-04T13:50:40.414Z,11.10
2022-12-04T13:53:28.568Z,9.97
2022-12-04T13:55:57.013Z,9.40
2022-12-04T13:58:29.219Z,9.40
2022-12-04T14:01:04.855Z,9.37
2022-12-04T14:03:34.289Z,8.83
2022-12-04T14:06:05.290Z,9.90
2022-12-04T14:08:39.229Z,9.83
2022-12-04T14:11:08.853Z,8.60
2022-12-04T14:13:44.332Z,9.73
2022-12-04T14:16:20.142Z,9.20
2022-12-04T14:18:49.511Z,9.67
2022-12-04T14:21:17.708Z,8.77
2022-12-04T14:23:46.381Z,8.77
2022-12-04T14:26:21.593Z,9.20
2022-12-04T14:28:51.831Z,15.33
2022-12-04T14:31:23.715Z,10.33
2022-12-04T14:33:53.061Z,9.00
2022-12-04T14:36:25.518Z,14.90
2022-12-04T14:39:03.231Z,9.87
2022-12-04T14:41:31.468Z,12.20
2022-12-04T14:44:01.186Z,10.47
2022-12-04T14:46:33.572Z,12.83
2022-12-04T14:49:06.131Z,12.47
2022-12-04T14:51:35.983Z,9.87
2022-12-04T14:54:09.985Z,10.30
2022-12-04T14:56:43.183Z,11.37
2022-12-04T14:59:17.890Z,9.73
2022-12-04T15:01:47.048Z,10.43
2022-12-04T15:04:17.726Z,11.83
2022-12-04T15:06:49.155Z,12.43
2022-12-04T15:09:37.216Z,10.27
2022-12-04T15:12:33.671Z,10.83
2022-12-04T15:15:05.151Z,10.97
2022-12-04T15:17:33.325Z,10.00
2022-12-04T15:20:09.017Z,13.03
2022-12-04T15:22:37.318Z,10.27
2022-12-04T15:25:06.514Z,9.23
2022-12-04T15:27:34.875Z,12.40
2022-12-04T15:30:04.751Z,12.00
2022-12-04T15:32:33.615Z,12.63
2022-12-04T15:35:05.227Z,12.07
2022-12-04T15:37:34.170Z,12.03
2022-12-04T15:40:06.554Z,12.63
2022-12-04T15:42:34.744Z,12.10
2022-12-04T15:45:17.773Z,12.30
2022-12-04T15:47:53.420Z,11.57
2022-12-04T15:50:23.265Z,12.13
2022-12-04T15:52:52.859Z,11.90
2022-12-04T15:55:23.289Z,12.87
2022-12-04T15:57:52.958Z,12.87
2022-12-04T16:00:27.282Z,13.33
2022-12-04T16:02:55.744Z,13.60
2022-12-04T16:05:34.876Z,13.33
2022-12-04T16:08:03.988Z,13.57
2022-12-04T16:10:33.273Z,14.07
2022-12-04T16:13:02.563Z,13.47
2022-12-04T16:15:37.883Z,11.80
2022-12-04T16:18:06.822Z,13.60
2022-12-04T16:20:35.852Z,12.50
2022-12-04T16:23:04.106Z,12.30
2022-12-04T16:25:32.593Z,13.77
2022-12-04T16:28:00.924Z,12.57
2022-12-04T16:30:29.205Z,12.53
2022-12-04T16:32:58.775Z,12.80
2022-12-04T16:35:26.975Z,12.50
2022-12-04T16:37:55.110Z,13.43
2022-12-04T16:40:23.300Z,12.10
2022-12-04T16:42:51.472Z,14.27
2022-12-04T16:45:23.058Z,14.17
2022-12-04T16:47:51.815Z,13.90
2022-12-04T16:50:21.406Z,14.83
2022-12-04T16:52:49.595Z,14.13
2022-12-04T16:55:19.901Z,14.60
2022-12-04T16:57:48.193Z,13.87
2022-12-04T17:00:16.892Z,14.33
2022-12-04T17:02:45.447Z,14.67
2022-12-04T17:05:19.726Z,14.13
2022-12-04T17:07:49.705Z,14.70
2022-12-04T17:10:23.456Z,14.03
2022-12-04T17:12:53.788Z,14.37
2022-12-04T17:15:21.966Z,16.13
2022-12-04T17:17:50.272Z,14.77
2022-12-04T17:20:19.330Z,14.80
2022-12-04T17:22:49.093Z,14.50
2022-12-04T17:25:17.943Z,14.43
2022-12-04T17:27:46.151Z,13.47
2022-12-04T17:30:15.003Z,14.47
2022-12-04T17:32:43.368Z,14.13
2022-12-04T17:35:13.149Z,13.50
2022-12-04T17:37:41.306Z,13.53
2022-12-04T17:40:12.964Z,13.57
2022-12-04T17:42:41.132Z,13.37
2022-12-04T17:45:10.573Z,14.37
2022-12-04T17:47:38.828Z,13.93
2022-12-04T17:50:07.835Z,13.77
2022-12-04T17:52:36.010Z,15.10
2022-12-04T17:55:04.397Z,15.10
2022-12-04T17:57:34.010Z,14.00
2022-12-04T18:00:02.240Z,13.70
2022-12-04T18:02:30.432Z,14.80
2022-12-04T18:04:58.873Z,14.00
2022-12-04T18:07:27.206Z,14.23
2022-12-04T18:09:55.723Z,15.87
2022-12-04T18:12:24.171Z,14.27
2022-12-04T18:14:54.730Z,14.90
2022-12-04T18:17:22.914Z,14.77
2022-12-04T18:19:51.116Z,14.93
2022-12-04T18:22:19.337Z,14.70
2022-12-04T18:24:47.771Z,13.97
2022-12-04T18:27:16.022Z,14.07
2022-12-04T18:29:44.197Z,13.33
2022-12-04T18:32:13.780Z,14.57
2022-12-04T18:34:42.076Z,15.57
2022-12-04T18:37:10.279Z,14.97
2022-12-04T18:39:38.447Z,14.90
2022-12-04T18:42:06.813Z,15.03
2022-12-04T18:44:35.009Z,14.77
2022-12-04T18:47:03.181Z,14.93
2022-12-04T18:49:32.838Z,14.77
2022-12-04T18:52:01.141Z,14.87
2022-12-04T18:54:29.322Z,12.57
2022-12-04T18:56:57.521Z,13.87
2022-12-04T18:59:26.743Z,14.07
2022-12-04T19:01:55.614Z,12.03
2022-12-04T19:04:24.795Z,15.03
2022-12-04T19:06:55.419Z,13.90
2022-12-04T19:09:47.135Z,13.60
2022-12-04T19:12:13.090Z,14.77
2022-12-04T19:14:41.348Z,14.37
2022-12-04T19:17:09.523Z,14.17
2022-12-04T19:19:37.655Z,13.77
2022-12-04T19:22:07.214Z,14.93
2022-12-04T19:24:35.397Z,14.23
2022-12-04T19:27:10.832Z,14.60
2022-12-04T19:29:39.185Z,15.03
2022-12-04T19:32:07.536Z,13.80
2022-12-04T19:34:35.857Z,14.77
2022-12-04T19:37:04.025Z,14.77
2022-12-04T19:39:33.588Z,13.77
2022-12-04T19:42:01.778Z,15.83
2022-12-04T19:47:18.330Z,14.80
2022-12-04T19:49:46.645Z,14.37
2022-12-04T19:52:14.921Z,15.00
2022-12-04T19:54:44.495Z,14.80
2022-12-04T19:57:13.605Z,14.50
2022-12-04T19:59:57.947Z,15.73
2022-12-04T20:02:26.321Z,14.80
2022-12-04T20:04:54.565Z,14.73
2022-12-04T20:07:22.835Z,15.83
2022-12-04T20:09:54.254Z,15.73
2022-12-04T20:12:22.479Z,15.37
2022-12-04T20:14:50.653Z,16.00
2022-12-04T20:17:18.904Z,16.10
2022-12-04T20:19:47.125Z,15.27
2022-12-04T20:22:15.265Z,15.07
2022-12-04T20:24:43.775Z,15.60
2022-12-04T20:27:13.286Z,15.80
2022-12-04T20:29:41.437Z,17.00
2022-12-04T20:32:09.626Z,16.00
2022-12-04T20:34:43.245Z,15.70
2022-12-04T20:37:11.968Z,17.17
2022-12-04T20:39:40.224Z,16.27
2022-12-04T20:42:08.369Z,17.10
2022-12-04T20:44:38.070Z,17.20
2022-12-04T20:47:06.306Z,17.33
2022-12-04T20:49:34.656Z,16.80
2022-12-04T20:52:02.917Z,16.97
2022-12-04T20:54:31.137Z,18.37
2022-12-04T20:56:59.318Z,18.13
2022-12-04T20:59:27.438Z,17.60
2022-12-04T21:01:57.093Z,18.07
2022-12-04T21:04:25.280Z,18.37
2022-12-04T21:06:53.524Z,17.00
2022-12-04T21:09:24.030Z,17.90
2022-12-04T21:11:53.247Z,17.57
2022-12-04T21:14:40.227Z,16.50
2022-12-04T21:17:11.659Z,16.67
2022-12-04T21:19:39.826Z,16.90
2022-12-04T21:22:08.037Z,17.70
2022-12-04T21:24:38.802Z,19.20
2022-12-04T21:27:08.334Z,18.27
2022-12-04T21:29:36.882Z,17.57
2022-12-04T21:32:05.451Z,17.87
2022-12-04T21:34:35.262Z,17.07
2022-12-04T21:37:03.401Z,18.47
2022-12-04T21:39:31.613Z,19.43
2022-12-04T21:42:17.276Z,18.03
2022-12-04T21:44:45.431Z,17.63
2022-12-04T21:47:13.600Z,17.47
2022-12-04T21:49:43.143Z,18.60
2022-12-04T21:52:11.435Z,17.10
2022-12-04T21:54:39.607Z,17.70
2022-12-04T21:57:07.755Z,16.07
2022-12-04T21:59:35.890Z,16.67
2022-12-04T22:02:04.164Z,17.70
2022-12-04T22:04:32.397Z,17.90
2022-12-04T22:07:01.913Z,16.30
2022-12-04T22:09:30.093Z,17.17
2022-12-04T22:11:58.249Z,17.03
2022-12-04T22:14:26.595Z,16.13
2022-12-04T22:16:55.203Z,16.47
2022-12-04T22:19:23.396Z,16.93
2022-12-04T22:21:51.542Z,15.27
2022-12-04T22:24:21.073Z,16.77
2022-12-04T22:26:49.228Z,15.67
2022-12-04T22:29:48.551Z,16.07
2022-12-04T22:32:05.634Z,15.70
2022-12-04T22:34:34.257Z,14.47
2022-12-04T22:37:02.403Z,15.13
2022-12-04T22:39:33.463Z,15.40
2022-12-04T22:42:01.638Z,15.80
2022-12-04T22:44:29.822Z,14.83
2022-12-04T22:46:58.046Z,14.47
2022-12-04T22:49:26.207Z,14.87
2022-12-04T22:51:54.387Z,15.03
2022-12-04T22:54:22.542Z,14.33
2022-12-04T22:56:52.105Z,14.90
2022-12-04T22:59:20.274Z,15.13
2022-12-04T23:01:48.495Z,15.30
2022-12-04T23:04:16.668Z,14.63
2022-12-04T23:06:44.825Z,14.87
2022-12-04T23:09:15.245Z,15.07
2022-12-04T23:11:43.572Z,14.73
2022-12-04T23:14:16.438Z,14.50
2022-12-04T23:16:44.977Z,13.90
2022-12-04T23:19:14.336Z,13.33
2022-12-04T23:21:43.032Z,14.17
2022-12-04T23:24:11.564Z,15.07
2022-12-04T23:26:40.736Z,14.07
2022-12-04T23:29:29.746Z,14.93
2022-12-04T23:31:58.626Z,14.00
2022-12-04T23:34:26.865Z,13.90
2022-12-04T23:36:55.061Z,12.57
2022-12-04T23:39:23.214Z,13.33
2022-12-04T23:41:51.392Z,14.00
2022-12-04T23:44:19.574Z,14.67
2022-12-04T23:46:47.796Z,14.13
2022-12-04T23:49:17.417Z,14.27
2022-12-04T23:51:45.573Z,15.10
2022-12-04T23:54:13.725Z,14.50
2022-12-04T23:56:41.899Z,13.53
2022-12-04T23:59:10.054Z,15.80
